sensor_id;sensor_type;location;lat;lon;timestamp;temperature;humidity
21895;DHT22;11112;51.270;7.224;2023-07-20T00:01:07;20.60;94.00
21895;DHT22;11112;51.270;7.224;2023-07-20T00:03:35;20.50;94.10
21895;DHT22;11112;51.270;7.224;2023-07-20T00:06:03;20.50;94.00
21895;DHT22;11112;51.270;7.224;2023-07-20T00:08:31;20.50;94.10
21895;DHT22;11112;51.270;7.224;2023-07-20T00:10:58;20.50;94.00
21895;DHT22;11112;51.270;7.224;2023-07-20T00:13:28;20.50;93.90
21895;DHT22;11112;51.270;7.224;2023-07-20T00:15:56;20.50;94.00
21895;DHT22;11112;51.270;7.224;2023-07-20T00:18:23;20.50;94.10
21895;DHT22;11112;51.270;7.224;2023-07-20T00:20:50;20.40;94.10
21895;DHT22;11112;51.270;7.224;2023-07-20T00:23:19;20.40;93.90
21895;DHT22;11112;51.270;7.224;2023-07-20T00:25:48;20.40;93.90
21895;DHT22;11112;51.270;7.224;2023-07-20T00:28:16;20.40;93.90
21895;DHT22;11112;51.270;7.224;2023-07-20T00:30:43;20.40;93.90
21895;DHT22;11112;51.270;7.224;2023-07-20T00:33:11;20.40;94.00
21895;DHT22;11112;51.270;7.224;2023-07-20T00:35:39;20.40;94.10
21895;DHT22;11112;51.270;7.224;2023-07-20T00:38:07;20.30;94.10
21895;DHT22;11112;51.270;7.224;2023-07-20T00:40:39;20.40;94.60
21895;DHT22;11112;51.270;7.224;2023-07-20T00:43:08;20.40;94.20
21895;DHT22;11112;51.270;7.224;2023-07-20T00:45:36;20.30;94.20
21895;DHT22;11112;51.270;7.224;2023-07-20T00:48:05;20.30;94.20
21895;DHT22;11112;51.270;7.224;2023-07-20T00:50:34;20.30;94.20
21895;DHT22;11112;51.270;7.224;2023-07-20T00:53:02;20.30;94.30
21895;DHT22;11112;51.270;7.224;2023-07-20T00:55:34;20.30;94.10
21895;DHT22;11112;51.270;7.224;2023-07-20T00:58:04;20.30;93.90
21895;DHT22;11112;51.270;7.224;2023-07-20T01:00:32;20.30;94.10
21895;DHT22;11112;51.270;7.224;2023-07-20T01:03:00;20.20;94.20
21895;DHT22;11112;51.270;7.224;2023-07-20T01:05:33;20.20;94.20
21895;DHT22;11112;51.270;7.224;2023-07-20T01:08:14;20.20;94.30
21895;DHT22;11112;51.270;7.224;2023-07-20T01:10:52;20.20;94.20
21895;DHT22;11112;51.270;7.224;2023-07-20T01:13:23;20.20;94.30
21895;DHT22;11112;51.270;7.224;2023-07-20T01:15:57;20.20;94.20
21895;DHT22;11112;51.270;7.224;2023-07-20T01:18:25;20.20;94.30
21895;DHT22;11112;51.270;7.224;2023-07-20T01:20:58;20.20;94.10
21895;DHT22;11112;51.270;7.224;2023-07-20T01:23:50;20.10;94.10
21895;DHT22;11112;51.270;7.224;2023-07-20T01:26:38;20.10;93.90
21895;DHT22;11112;51.270;7.224;2023-07-20T01:29:41;20.10;94.00
21895;DHT22;11112;51.270;7.224;2023-07-20T01:32:19;20.10;94.00
21895;DHT22;11112;51.270;7.224;2023-07-20T01:34:52;20.10;94.10
21895;DHT22;11112;51.270;7.224;2023-07-20T01:37:21;20.10;94.10
21895;DHT22;11112;51.270;7.224;2023-07-20T01:39:52;20.10;94.20
21895;DHT22;11112;51.270;7.224;2023-07-20T01:42:21;20.10;94.20
21895;DHT22;11112;51.270;7.224;2023-07-20T01:44:51;20.00;94.10
21895;DHT22;11112;51.270;7.224;2023-07-20T01:47:23;20.00;94.10
21895;DHT22;11112;51.270;7.224;2023-07-20T01:49:50;20.00;94.10
21895;DHT22;11112;51.270;7.224;2023-07-20T01:52:17;20.00;94.10
21895;DHT22;11112;51.270;7.224;2023-07-20T01:54:45;20.00;94.00
21895;DHT22;11112;51.270;7.224;2023-07-20T01:57:12;20.00;94.30
21895;DHT22;11112;51.270;7.224;2023-07-20T01:59:39;20.00;94.20
21895;DHT22;11112;51.270;7.224;2023-07-20T02:02:08;20.00;94.30
21895;DHT22;11112;51.270;7.224;2023-07-20T02:04:37;20.00;94.40
21895;DHT22;11112;51.270;7.224;2023-07-20T02:07:05;20.00;94.50
21895;DHT22;11112;51.270;7.224;2023-07-20T02:09:33;20.00;94.40
21895;DHT22;11112;51.270;7.224;2023-07-20T02:12:01;20.00;94.30
21895;DHT22;11112;51.270;7.224;2023-07-20T02:14:28;20.00;94.30
21895;DHT22;11112;51.270;7.224;2023-07-20T02:16:56;20.00;94.50
21895;DHT22;11112;51.270;7.224;2023-07-20T02:19:26;20.00;94.60
21895;DHT22;11112;51.270;7.224;2023-07-20T02:21:55;20.00;94.70
21895;DHT22;11112;51.270;7.224;2023-07-20T02:24:23;20.00;94.70
21895;DHT22;11112;51.270;7.224;2023-07-20T02:26:52;20.00;94.60
21895;DHT22;11112;51.270;7.224;2023-07-20T02:29:19;20.00;94.60
21895;DHT22;11112;51.270;7.224;2023-07-20T02:31:46;20.00;94.60
21895;DHT22;11112;51.270;7.224;2023-07-20T02:34:14;20.00;94.60
21895;DHT22;11112;51.270;7.224;2023-07-20T02:36:44;19.90;94.60
21895;DHT22;11112;51.270;7.224;2023-07-20T02:39:13;19.90;94.60
21895;DHT22;11112;51.270;7.224;2023-07-20T02:41:42;19.90;94.60
21895;DHT22;11112;51.270;7.224;2023-07-20T02:44:09;19.90;94.60
21895;DHT22;11112;51.270;7.224;2023-07-20T02:46:36;19.90;94.70
21895;DHT22;11112;51.270;7.224;2023-07-20T02:49:03;19.90;94.80
21895;DHT22;11112;51.270;7.224;2023-07-20T02:51:32;19.90;94.70
21895;DHT22;11112;51.270;7.224;2023-07-20T02:53:59;19.90;94.70
21895;DHT22;11112;51.270;7.224;2023-07-20T02:56:30;19.90;94.60
21895;DHT22;11112;51.270;7.224;2023-07-20T02:58:58;19.90;94.70
21895;DHT22;11112;51.270;7.224;2023-07-20T03:01:25;19.90;94.80
21895;DHT22;11112;51.270;7.224;2023-07-20T03:03:54;19.90;94.80
21895;DHT22;11112;51.270;7.224;2023-07-20T03:06:22;19.90;94.70
21895;DHT22;11112;51.270;7.224;2023-07-20T03:08:49;19.90;94.60
21895;DHT22;11112;51.270;7.224;2023-07-20T03:11:18;19.90;94.60
21895;DHT22;11112;51.270;7.224;2023-07-20T03:13:47;19.80;95.00
21895;DHT22;11112;51.270;7.224;2023-07-20T03:16:20;19.80;94.50
21895;DHT22;11112;51.270;7.224;2023-07-20T03:18:47;19.80;94.70
21895;DHT22;11112;51.270;7.224;2023-07-20T03:21:14;19.80;94.60
21895;DHT22;11112;51.270;7.224;2023-07-20T03:23:42;19.80;94.70
21895;DHT22;11112;51.270;7.224;2023-07-20T03:26:10;19.80;94.60
21895;DHT22;11112;51.270;7.224;2023-07-20T03:28:38;19.80;94.70
21895;DHT22;11112;51.270;7.224;2023-07-20T03:31:08;19.80;94.80
21895;DHT22;11112;51.270;7.224;2023-07-20T03:33:35;19.80;94.90
21895;DHT22;11112;51.270;7.224;2023-07-20T03:36:04;19.80;94.90
21895;DHT22;11112;51.270;7.224;2023-07-20T03:38:32;19.80;94.90
21895;DHT22;11112;51.270;7.224;2023-07-20T03:41:00;19.80;94.90
21895;DHT22;11112;51.270;7.224;2023-07-20T03:43:28;19.80;95.00
21895;DHT22;11112;51.270;7.224;2023-07-20T03:45:55;19.80;95.10
21895;DHT22;11112;51.270;7.224;2023-07-20T03:48:27;19.80;94.90
21895;DHT22;11112;51.270;7.224;2023-07-20T03:50:54;19.80;95.00
21895;DHT22;11112;51.270;7.224;2023-07-20T03:53:22;19.80;95.00
21895;DHT22;11112;51.270;7.224;2023-07-20T03:55:51;19.80;95.10
21895;DHT22;11112;51.270;7.224;2023-07-20T03:58:19;19.80;95.20
21895;DHT22;11112;51.270;7.224;2023-07-20T04:00:51;19.80;95.30
21895;DHT22;11112;51.270;7.224;2023-07-20T04:03:20;19.80;95.20
21895;DHT22;11112;51.270;7.224;2023-07-20T04:05:49;19.80;95.20
21895;DHT22;11112;51.270;7.224;2023-07-20T04:08:18;19.80;95.30
21895;DHT22;11112;51.270;7.224;2023-07-20T04:10:47;19.70;95.30
21895;DHT22;11112;51.270;7.224;2023-07-20T04:13:14;19.70;95.30
21895;DHT22;11112;51.270;7.224;2023-07-20T04:15:42;19.70;95.30
21895;DHT22;11112;51.270;7.224;2023-07-20T04:18:09;19.70;95.40
21895;DHT22;11112;51.270;7.224;2023-07-20T04:20:37;19.70;95.50
21895;DHT22;11112;51.270;7.224;2023-07-20T04:23:05;19.70;95.60
21895;DHT22;11112;51.270;7.224;2023-07-20T04:25:33;19.70;95.60
21895;DHT22;11112;51.270;7.224;2023-07-20T04:28:05;19.70;95.50
21895;DHT22;11112;51.270;7.224;2023-07-20T04:30:35;19.70;95.60
21895;DHT22;11112;51.270;7.224;2023-07-20T04:33:03;19.70;95.60
21895;DHT22;11112;51.270;7.224;2023-07-20T04:35:49;19.70;95.70
21895;DHT22;11112;51.270;7.224;2023-07-20T04:38:19;19.70;95.70
21895;DHT22;11112;51.270;7.224;2023-07-20T04:40:48;19.70;95.80
21895;DHT22;11112;51.270;7.224;2023-07-20T04:43:17;19.70;95.60
21895;DHT22;11112;51.270;7.224;2023-07-20T04:45:44;19.70;95.70
21895;DHT22;11112;51.270;7.224;2023-07-20T04:48:14;19.70;95.70
21895;DHT22;11112;51.270;7.224;2023-07-20T04:50:43;19.70;95.80
21895;DHT22;11112;51.270;7.224;2023-07-20T04:53:13;19.70;95.80
21895;DHT22;11112;51.270;7.224;2023-07-20T04:55:47;19.70;95.80
21895;DHT22;11112;51.270;7.224;2023-07-20T04:58:17;19.60;95.70
21895;DHT22;11112;51.270;7.224;2023-07-20T05:00:45;19.70;95.90
21895;DHT22;11112;51.270;7.224;2023-07-20T05:03:14;19.70;95.90
21895;DHT22;11112;51.270;7.224;2023-07-20T05:05:41;19.70;95.70
21895;DHT22;11112;51.270;7.224;2023-07-20T05:08:09;19.70;95.80
21895;DHT22;11112;51.270;7.224;2023-07-20T05:10:36;19.70;95.90
21895;DHT22;11112;51.270;7.224;2023-07-20T05:13:06;19.60;96.00
21895;DHT22;11112;51.270;7.224;2023-07-20T05:15:33;19.60;96.00
21895;DHT22;11112;51.270;7.224;2023-07-20T05:18:04;19.60;96.00
21895;DHT22;11112;51.270;7.224;2023-07-20T05:20:31;19.60;96.00
21895;DHT22;11112;51.270;7.224;2023-07-20T05:23:02;19.60;96.00
21895;DHT22;11112;51.270;7.224;2023-07-20T05:25:34;19.60;96.10
21895;DHT22;11112;51.270;7.224;2023-07-20T05:28:02;19.60;96.10
21895;DHT22;11112;51.270;7.224;2023-07-20T05:30:31;19.60;96.10
21895;DHT22;11112;51.270;7.224;2023-07-20T05:32:59;19.60;96.00
21895;DHT22;11112;51.270;7.224;2023-07-20T05:35:29;19.60;96.00
21895;DHT22;11112;51.270;7.224;2023-07-20T05:37:58;19.60;96.00
21895;DHT22;11112;51.270;7.224;2023-07-20T05:40:25;19.60;95.90
21895;DHT22;11112;51.270;7.224;2023-07-20T05:42:53;19.60;95.80
21895;DHT22;11112;51.270;7.224;2023-07-20T05:45:22;19.60;95.90
21895;DHT22;11112;51.270;7.224;2023-07-20T05:47:51;19.60;96.10
21895;DHT22;11112;51.270;7.224;2023-07-20T05:50:19;19.60;96.00
21895;DHT22;11112;51.270;7.224;2023-07-20T05:52:48;19.60;96.10
21895;DHT22;11112;51.270;7.224;2023-07-20T05:55:15;19.60;96.10
21895;DHT22;11112;51.270;7.224;2023-07-20T05:57:43;19.70;96.10
21895;DHT22;11112;51.270;7.224;2023-07-20T06:00:11;19.60;96.00
21895;DHT22;11112;51.270;7.224;2023-07-20T06:02:39;19.60;96.10
21895;DHT22;11112;51.270;7.224;2023-07-20T06:05:09;19.60;96.00
21895;DHT22;11112;51.270;7.224;2023-07-20T06:07:37;19.60;96.10
21895;DHT22;11112;51.270;7.224;2023-07-20T06:10:06;19.60;96.00
21895;DHT22;11112;51.270;7.224;2023-07-20T06:12:34;19.60;95.90
21895;DHT22;11112;51.270;7.224;2023-07-20T06:15:03;19.60;96.00
21895;DHT22;11112;51.270;7.224;2023-07-20T06:17:34;19.70;95.90
21895;DHT22;11112;51.270;7.224;2023-07-20T06:20:01;19.70;95.90
21895;DHT22;11112;51.270;7.224;2023-07-20T06:22:30;19.70;95.90
21895;DHT22;11112;51.270;7.224;2023-07-20T06:24:57;19.70;95.90
21895;DHT22;11112;51.270;7.224;2023-07-20T06:27:25;19.70;95.80
21895;DHT22;11112;51.270;7.224;2023-07-20T06:29:54;19.70;95.80
21895;DHT22;11112;51.270;7.224;2023-07-20T06:32:21;19.70;95.90
21895;DHT22;11112;51.270;7.224;2023-07-20T06:34:48;19.70;95.90
21895;DHT22;11112;51.270;7.224;2023-07-20T06:37:16;19.70;95.50
21895;DHT22;11112;51.270;7.224;2023-07-20T06:39:47;19.70;95.50
21895;DHT22;11112;51.270;7.224;2023-07-20T06:42:15;19.70;95.50
21895;DHT22;11112;51.270;7.224;2023-07-20T06:44:45;19.80;95.40
21895;DHT22;11112;51.270;7.224;2023-07-20T06:47:12;19.80;95.30
21895;DHT22;11112;51.270;7.224;2023-07-20T06:49:39;19.80;94.80
21895;DHT22;11112;51.270;7.224;2023-07-20T06:52:07;19.70;94.70
21895;DHT22;11112;51.270;7.224;2023-07-20T06:54:35;19.60;94.60
21895;DHT22;11112;51.270;7.224;2023-07-20T06:57:05;19.60;94.60
21895;DHT22;11112;51.270;7.224;2023-07-20T06:59:32;19.60;94.80
21895;DHT22;11112;51.270;7.224;2023-07-20T07:01:59;19.60;94.50
21895;DHT22;11112;51.270;7.224;2023-07-20T07:04:27;19.50;94.80
21895;DHT22;11112;51.270;7.224;2023-07-20T07:06:55;19.50;94.70
21895;DHT22;11112;51.270;7.224;2023-07-20T07:09:23;19.50;94.30
21895;DHT22;11112;51.270;7.224;2023-07-20T07:11:50;19.50;94.40
21895;DHT22;11112;51.270;7.224;2023-07-20T07:14:20;19.60;94.40
21895;DHT22;11112;51.270;7.224;2023-07-20T07:16:47;19.70;94.40
21895;DHT22;11112;51.270;7.224;2023-07-20T07:19:17;19.90;94.30
21895;DHT22;11112;51.270;7.224;2023-07-20T07:21:44;20.20;93.90
21895;DHT22;11112;51.270;7.224;2023-07-20T07:24:14;20.20;93.50
21895;DHT22;11112;51.270;7.224;2023-07-20T07:26:41;20.30;93.60
21895;DHT22;11112;51.270;7.224;2023-07-20T07:29:08;21.60;91.60
21895;DHT22;11112;51.270;7.224;2023-07-20T07:31:40;21.90;90.80
21895;DHT22;11112;51.270;7.224;2023-07-20T07:34:07;21.80;90.50
21895;DHT22;11112;51.270;7.224;2023-07-20T07:36:35;21.70;90.50
21895;DHT22;11112;51.270;7.224;2023-07-20T07:39:04;21.30;90.80
21895;DHT22;11112;51.270;7.224;2023-07-20T07:41:31;21.10;90.90
21895;DHT22;11112;51.270;7.224;2023-07-20T07:43:59;20.90;90.80
21895;DHT22;11112;51.270;7.224;2023-07-20T07:46:26;20.90;91.10
21895;DHT22;11112;51.270;7.224;2023-07-20T07:48:55;20.80;91.50
21895;DHT22;11112;51.270;7.224;2023-07-20T07:51:22;20.70;91.60
21895;DHT22;11112;51.270;7.224;2023-07-20T07:53:49;20.70;91.60
21895;DHT22;11112;51.270;7.224;2023-07-20T07:56:17;20.60;91.50
21895;DHT22;11112;51.270;7.224;2023-07-20T07:58:48;20.60;91.50
21895;DHT22;11112;51.270;7.224;2023-07-20T08:01:17;20.50;91.20
21895;DHT22;11112;51.270;7.224;2023-07-20T08:03:45;20.50;91.50
21895;DHT22;11112;51.270;7.224;2023-07-20T08:06:15;20.60;91.70
21895;DHT22;11112;51.270;7.224;2023-07-20T08:08:42;20.70;91.60
21895;DHT22;11112;51.270;7.224;2023-07-20T08:11:10;20.60;91.20
21895;DHT22;11112;51.270;7.224;2023-07-20T08:13:38;20.60;91.10
21895;DHT22;11112;51.270;7.224;2023-07-20T08:16:06;20.60;91.00
21895;DHT22;11112;51.270;7.224;2023-07-20T08:18:33;20.60;91.00
21895;DHT22;11112;51.270;7.224;2023-07-20T08:21:03;20.60;90.90
21895;DHT22;11112;51.270;7.224;2023-07-20T08:23:31;20.70;90.90
21895;DHT22;11112;51.270;7.224;2023-07-20T08:25:59;20.60;90.90
21895;DHT22;11112;51.270;7.224;2023-07-20T08:28:27;20.60;90.90
21895;DHT22;11112;51.270;7.224;2023-07-20T08:30:54;20.60;89.70
21895;DHT22;11112;51.270;7.224;2023-07-20T08:33:22;20.50;89.00
21895;DHT22;11112;51.270;7.224;2023-07-20T08:35:49;20.40;89.20
21895;DHT22;11112;51.270;7.224;2023-07-20T08:38:17;20.40;89.50
21895;DHT22;11112;51.270;7.224;2023-07-20T08:40:46;20.50;90.00
21895;DHT22;11112;51.270;7.224;2023-07-20T08:43:15;20.60;90.10
21895;DHT22;11112;51.270;7.224;2023-07-20T08:45:45;20.70;90.00
21895;DHT22;11112;51.270;7.224;2023-07-20T08:48:13;20.70;88.90
21895;DHT22;11112;51.270;7.224;2023-07-20T08:50:41;20.80;87.40
21895;DHT22;11112;51.270;7.224;2023-07-20T08:53:10;20.80;88.00
21895;DHT22;11112;51.270;7.224;2023-07-20T08:55:39;20.90;87.80
21895;DHT22;11112;51.270;7.224;2023-07-20T08:58:08;20.90;87.50
21895;DHT22;11112;51.270;7.224;2023-07-20T09:00:39;21.00;87.10
21895;DHT22;11112;51.270;7.224;2023-07-20T09:03:08;21.00;86.30
21895;DHT22;11112;51.270;7.224;2023-07-20T09:05:35;21.00;87.70
21895;DHT22;11112;51.270;7.224;2023-07-20T09:08:04;20.90;87.30
21895;DHT22;11112;51.270;7.224;2023-07-20T09:10:32;20.80;87.50
21895;DHT22;11112;51.270;7.224;2023-07-20T09:13:00;20.80;85.70
21895;DHT22;11112;51.270;7.224;2023-07-20T09:15:30;20.70;85.00
21895;DHT22;11112;51.270;7.224;2023-07-20T09:18:01;20.70;84.40
21895;DHT22;11112;51.270;7.224;2023-07-20T09:20:32;20.80;85.70
21895;DHT22;11112;51.270;7.224;2023-07-20T09:23:00;20.90;84.60
21895;DHT22;11112;51.270;7.224;2023-07-20T09:25:32;20.90;81.50
21895;DHT22;11112;51.270;7.224;2023-07-20T09:28:03;20.90;82.90
21895;DHT22;11112;51.270;7.224;2023-07-20T09:30:32;21.00;84.10
21895;DHT22;11112;51.270;7.224;2023-07-20T09:33:00;21.00;84.90
21895;DHT22;11112;51.270;7.224;2023-07-20T09:35:27;21.10;83.60
21895;DHT22;11112;51.270;7.224;2023-07-20T09:37:59;21.10;82.70
21895;DHT22;11112;51.270;7.224;2023-07-20T09:40:28;21.10;83.70
21895;DHT22;11112;51.270;7.224;2023-07-20T09:42:55;21.10;83.70
21895;DHT22;11112;51.270;7.224;2023-07-20T09:45:32;21.10;83.90
21895;DHT22;11112;51.270;7.224;2023-07-20T09:48:05;21.10;84.50
21895;DHT22;11112;51.270;7.224;2023-07-20T09:50:34;21.10;84.90
21895;DHT22;11112;51.270;7.224;2023-07-20T09:53:03;21.10;85.40
21895;DHT22;11112;51.270;7.224;2023-07-20T09:55:30;21.00;84.70
21895;DHT22;11112;51.270;7.224;2023-07-20T09:57:59;21.00;83.60
21895;DHT22;11112;51.270;7.224;2023-07-20T10:00:27;20.90;83.50
21895;DHT22;11112;51.270;7.224;2023-07-20T10:02:58;20.90;83.90
21895;DHT22;11112;51.270;7.224;2023-07-20T10:05:28;21.00;84.40
21895;DHT22;11112;51.270;7.224;2023-07-20T10:08:01;21.00;83.10
21895;DHT22;11112;51.270;7.224;2023-07-20T10:10:34;21.00;83.10
21895;DHT22;11112;51.270;7.224;2023-07-20T10:13:03;21.00;83.50
21895;DHT22;11112;51.270;7.224;2023-07-20T10:15:36;21.00;83.60
21895;DHT22;11112;51.270;7.224;2023-07-20T10:18:10;21.10;83.20
21895;DHT22;11112;51.270;7.224;2023-07-20T10:20:40;21.10;82.40
21895;DHT22;11112;51.270;7.224;2023-07-20T10:23:09;21.10;81.30
21895;DHT22;11112;51.270;7.224;2023-07-20T10:25:39;21.10;80.00
21895;DHT22;11112;51.270;7.224;2023-07-20T10:28:08;21.10;79.70
21895;DHT22;11112;51.270;7.224;2023-07-20T10:30:38;21.10;80.80
21895;DHT22;11112;51.270;7.224;2023-07-20T10:33:08;21.20;80.10
21895;DHT22;11112;51.270;7.224;2023-07-20T10:35:51;21.20;80.00
21895;DHT22;11112;51.270;7.224;2023-07-20T10:38:19;21.30;80.50
21895;DHT22;11112;51.270;7.224;2023-07-20T10:40:54;21.30;82.60
21895;DHT22;11112;51.270;7.224;2023-07-20T10:43:22;21.20;83.70
21895;DHT22;11112;51.270;7.224;2023-07-20T10:45:50;21.10;84.30
21895;DHT22;11112;51.270;7.224;2023-07-20T10:48:21;21.10;84.00
21895;DHT22;11112;51.270;7.224;2023-07-20T10:51:10;21.10;83.70
21895;DHT22;11112;51.270;7.224;2023-07-20T10:53:39;21.20;82.80
21895;DHT22;11112;51.270;7.224;2023-07-20T10:56:08;21.20;82.10
21895;DHT22;11112;51.270;7.224;2023-07-20T10:58:39;21.20;81.10
21895;DHT22;11112;51.270;7.224;2023-07-20T11:01:07;21.20;80.50
21895;DHT22;11112;51.270;7.224;2023-07-20T11:03:37;21.20;80.30
21895;DHT22;11112;51.270;7.224;2023-07-20T11:06:30;21.20;80.50
21895;DHT22;11112;51.270;7.224;2023-07-20T11:09:06;21.20;80.20
21895;DHT22;11112;51.270;7.224;2023-07-20T11:11:47;21.10;79.50
21895;DHT22;11112;51.270;7.224;2023-07-20T11:14:21;21.10;79.30
21895;DHT22;11112;51.270;7.224;2023-07-20T11:16:49;21.10;78.60
21895;DHT22;11112;51.270;7.224;2023-07-20T11:19:22;21.20;77.10
21895;DHT22;11112;51.270;7.224;2023-07-20T11:21:51;21.20;77.20
21895;DHT22;11112;51.270;7.224;2023-07-20T11:24:19;21.20;76.70
21895;DHT22;11112;51.270;7.224;2023-07-20T11:26:48;21.30;76.70
21895;DHT22;11112;51.270;7.224;2023-07-20T11:29:18;21.30;76.70
21895;DHT22;11112;51.270;7.224;2023-07-20T11:31:46;21.40;76.40
21895;DHT22;11112;51.270;7.224;2023-07-20T11:34:18;21.40;74.70
21895;DHT22;11112;51.270;7.224;2023-07-20T11:36:48;21.50;74.20
21895;DHT22;11112;51.270;7.224;2023-07-20T11:39:19;21.50;73.90
21895;DHT22;11112;51.270;7.224;2023-07-20T11:41:50;21.50;75.00
21895;DHT22;11112;51.270;7.224;2023-07-20T11:44:19;21.60;75.30
21895;DHT22;11112;51.270;7.224;2023-07-20T11:46:59;21.50;75.30
21895;DHT22;11112;51.270;7.224;2023-07-20T11:49:30;21.50;75.80
21895;DHT22;11112;51.270;7.224;2023-07-20T11:51:58;21.50;76.20
21895;DHT22;11112;51.270;7.224;2023-07-20T11:54:27;21.50;76.40
21895;DHT22;11112;51.270;7.224;2023-07-20T11:56:55;21.50;75.70
21895;DHT22;11112;51.270;7.224;2023-07-20T11:59:22;21.50;76.20
21895;DHT22;11112;51.270;7.224;2023-07-20T12:01:52;21.50;75.00
21895;DHT22;11112;51.270;7.224;2023-07-20T12:04:22;21.50;75.00
21895;DHT22;11112;51.270;7.224;2023-07-20T12:06:54;21.60;75.00
21895;DHT22;11112;51.270;7.224;2023-07-20T12:09:21;21.50;74.10
21895;DHT22;11112;51.270;7.224;2023-07-20T12:11:53;21.60;74.10
21895;DHT22;11112;51.270;7.224;2023-07-20T12:14:20;21.60;74.00
21895;DHT22;11112;51.270;7.224;2023-07-20T12:16:53;21.60;73.20
21895;DHT22;11112;51.270;7.224;2023-07-20T12:19:24;21.60;73.50
21895;DHT22;11112;51.270;7.224;2023-07-20T12:21:57;21.60;73.00
21895;DHT22;11112;51.270;7.224;2023-07-20T12:24:25;21.60;73.70
21895;DHT22;11112;51.270;7.224;2023-07-20T12:26:57;21.60;74.40
21895;DHT22;11112;51.270;7.224;2023-07-20T12:29:24;21.60;74.50
21895;DHT22;11112;51.270;7.224;2023-07-20T12:31:55;21.70;73.30
21895;DHT22;11112;51.270;7.224;2023-07-20T12:34:24;21.70;72.40
21895;DHT22;11112;51.270;7.224;2023-07-20T12:36:53;21.60;71.90
21895;DHT22;11112;51.270;7.224;2023-07-20T12:39:21;21.60;72.30
21895;DHT22;11112;51.270;7.224;2023-07-20T12:41:50;21.60;72.90
21895;DHT22;11112;51.270;7.224;2023-07-20T12:44:17;21.70;72.80
21895;DHT22;11112;51.270;7.224;2023-07-20T12:46:47;21.70;72.10
21895;DHT22;11112;51.270;7.224;2023-07-20T12:49:24;21.70;71.30
21895;DHT22;11112;51.270;7.224;2023-07-20T12:51:54;21.70;69.30
21895;DHT22;11112;51.270;7.224;2023-07-20T12:54:22;21.70;69.00
21895;DHT22;11112;51.270;7.224;2023-07-20T12:56:50;21.70;69.50
21895;DHT22;11112;51.270;7.224;2023-07-20T12:59:17;21.70;70.30
21895;DHT22;11112;51.270;7.224;2023-07-20T13:01:45;21.70;69.40
21895;DHT22;11112;51.270;7.224;2023-07-20T13:04:14;21.70;70.70
21895;DHT22;11112;51.270;7.224;2023-07-20T13:06:43;21.70;72.00
21895;DHT22;11112;51.270;7.224;2023-07-20T13:09:12;21.70;72.40
21895;DHT22;11112;51.270;7.224;2023-07-20T13:11:40;21.70;71.90
21895;DHT22;11112;51.270;7.224;2023-07-20T13:14:09;21.70;71.50
21895;DHT22;11112;51.270;7.224;2023-07-20T13:16:39;21.70;70.90
21895;DHT22;11112;51.270;7.224;2023-07-20T13:19:08;21.60;70.60
21895;DHT22;11112;51.270;7.224;2023-07-20T13:21:36;21.60;71.30
21895;DHT22;11112;51.270;7.224;2023-07-20T13:24:05;21.60;71.50
21895;DHT22;11112;51.270;7.224;2023-07-20T13:26:36;21.60;71.00
21895;DHT22;11112;51.270;7.224;2023-07-20T13:29:03;21.70;70.90
21895;DHT22;11112;51.270;7.224;2023-07-20T13:31:30;21.60;70.80
21895;DHT22;11112;51.270;7.224;2023-07-20T13:33:58;21.70;70.60
21895;DHT22;11112;51.270;7.224;2023-07-20T13:36:25;21.70;71.30
21895;DHT22;11112;51.270;7.224;2023-07-20T13:38:52;21.70;71.40
21895;DHT22;11112;51.270;7.224;2023-07-20T13:41:20;21.70;70.50
21895;DHT22;11112;51.270;7.224;2023-07-20T13:43:49;21.80;70.50
21895;DHT22;11112;51.270;7.224;2023-07-20T13:46:17;21.80;70.20
21895;DHT22;11112;51.270;7.224;2023-07-20T13:48:44;21.80;70.40
21895;DHT22;11112;51.270;7.224;2023-07-20T13:51:12;21.80;70.40
21895;DHT22;11112;51.270;7.224;2023-07-20T13:53:39;21.80;71.00
21895;DHT22;11112;51.270;7.224;2023-07-20T13:56:07;21.80;70.10
21895;DHT22;11112;51.270;7.224;2023-07-20T13:58:34;21.80;70.40
21895;DHT22;11112;51.270;7.224;2023-07-20T14:01:03;21.80;71.10
21895;DHT22;11112;51.270;7.224;2023-07-20T14:03:31;21.80;70.40
21895;DHT22;11112;51.270;7.224;2023-07-20T14:05:58;21.80;71.00
21895;DHT22;11112;51.270;7.224;2023-07-20T14:08:26;21.80;70.60
21895;DHT22;11112;51.270;7.224;2023-07-20T14:10:55;21.80;71.00
21895;DHT22;11112;51.270;7.224;2023-07-20T14:13:24;21.80;71.40
21895;DHT22;11112;51.270;7.224;2023-07-20T14:15:52;21.80;71.70
21895;DHT22;11112;51.270;7.224;2023-07-20T14:18:21;21.80;71.40
21895;DHT22;11112;51.270;7.224;2023-07-20T14:20:49;21.70;71.40
21895;DHT22;11112;51.270;7.224;2023-07-20T14:23:16;21.70;71.70
21895;DHT22;11112;51.270;7.224;2023-07-20T14:25:44;21.70;71.70
21895;DHT22;11112;51.270;7.224;2023-07-20T14:28:12;21.70;71.90
21895;DHT22;11112;51.270;7.224;2023-07-20T14:30:39;21.70;72.10
21895;DHT22;11112;51.270;7.224;2023-07-20T14:33:07;21.70;71.90
21895;DHT22;11112;51.270;7.224;2023-07-20T14:35:36;21.70;72.00
21895;DHT22;11112;51.270;7.224;2023-07-20T14:38:03;21.80;72.00
21895;DHT22;11112;51.270;7.224;2023-07-20T14:40:31;21.80;71.90
21895;DHT22;11112;51.270;7.224;2023-07-20T14:42:58;21.80;71.80
21895;DHT22;11112;51.270;7.224;2023-07-20T14:45:26;21.70;71.90
21895;DHT22;11112;51.270;7.224;2023-07-20T14:47:55;21.70;71.90
21895;DHT22;11112;51.270;7.224;2023-07-20T14:50:23;21.80;71.90
21895;DHT22;11112;51.270;7.224;2023-07-20T14:52:51;21.80;71.90
21895;DHT22;11112;51.270;7.224;2023-07-20T14:55:20;21.80;71.80
21895;DHT22;11112;51.270;7.224;2023-07-20T14:57:48;21.80;71.60
21895;DHT22;11112;51.270;7.224;2023-07-20T15:00:16;21.80;71.00
21895;DHT22;11112;51.270;7.224;2023-07-20T15:02:54;21.80;71.50
21895;DHT22;11112;51.270;7.224;2023-07-20T15:05:22;21.80;71.20
21895;DHT22;11112;51.270;7.224;2023-07-20T15:07:52;21.80;71.00
21895;DHT22;11112;51.270;7.224;2023-07-20T15:10:22;21.70;71.10
21895;DHT22;11112;51.270;7.224;2023-07-20T15:12:49;21.70;71.50
21895;DHT22;11112;51.270;7.224;2023-07-20T15:15:16;21.80;71.50
21895;DHT22;11112;51.270;7.224;2023-07-20T15:17:44;21.80;71.00
21895;DHT22;11112;51.270;7.224;2023-07-20T15:20:15;21.80;70.80
21895;DHT22;11112;51.270;7.224;2023-07-20T15:22:44;21.80;70.40
21895;DHT22;11112;51.270;7.224;2023-07-20T15:25:14;21.80;70.90
21895;DHT22;11112;51.270;7.224;2023-07-20T15:27:43;21.80;70.50
21895;DHT22;11112;51.270;7.224;2023-07-20T15:30:14;21.80;70.60
21895;DHT22;11112;51.270;7.224;2023-07-20T15:32:47;21.80;69.70
21895;DHT22;11112;51.270;7.224;2023-07-20T15:35:14;21.80;68.70
21895;DHT22;11112;51.270;7.224;2023-07-20T15:37:41;21.80;69.10
21895;DHT22;11112;51.270;7.224;2023-07-20T15:40:10;21.80;69.70
21895;DHT22;11112;51.270;7.224;2023-07-20T15:42:40;21.80;69.10